Time;durP1;ratioP1;P1;durP2;ratioP2;P2;SDS_P1;SDS_P2;PMS_P1;PMS_P2;Temp;Humidity;BMP_temperature;BMP_pressure;BME280_temperature;BME280_humidity;BME280_pressure;Samples;Min_cycle;Max_cycle;Signal;HPM_P1;HPM_P2
2022/09/21 00:01:33;;;;;;;4.60;4.20;;;12.90;99.90;;;;;;4929451;29;20044;-87
2022/09/21 00:04:03;;;;;;;7.00;5.25;;;12.80;99.90;;;;;;4926978;29;20028;-87
2022/09/21 00:06:31;;;;;;;;;;;12.80;99.90;;;;;;4915392;29;20044;-87
2022/09/21 00:08:57;;;;;;;32.00;5.53;;;12.80;99.90;;;;;;4938230;29;19911;-87
2022/09/21 00:11:26;;;;;;;4.35;3.83;;;12.80;99.90;;;;;;4935383;29;20024;-87
2022/09/21 00:13:59;;;;;;;6.00;4.75;;;12.80;99.90;;;;;;4945828;29;20039;-87
2022/09/21 00:16:26;;;;;;;4.85;3.53;;;12.70;99.90;;;;;;4932840;29;20088;-87
2022/09/21 00:18:52;;;;;;;4.20;3.90;;;12.70;99.90;;;;;;4932249;29;20473;-87
2022/09/21 00:21:18;;;;;;;5.22;4.03;;;12.70;99.90;;;;;;4897805;29;20028;-87
2022/09/21 00:23:45;;;;;;;5.82;4.03;;;12.70;99.90;;;;;;4932309;29;20034;-87
2022/09/21 00:26:17;;;;;;;9.60;3.92;;;12.70;99.90;;;;;;4932337;29;20051;-88
2022/09/21 00:28:43;;;;;;;7.35;4.78;;;12.70;99.90;;;;;;4948429;29;20030;-87
2022/09/21 00:31:11;;;;;;;5.90;4.32;;;12.60;99.90;;;;;;4913562;29;20048;-87
2022/09/21 00:33:39;;;;;;;4.43;4.00;;;12.60;99.90;;;;;;4921976;29;20079;-87
2022/09/21 00:36:08;;;;;;;5.72;3.80;;;12.60;99.90;;;;;;4909242;29;20059;-88
2022/09/21 00:38:35;;;;;;;3.97;3.67;;;12.60;99.90;;;;;;4920615;29;20038;-87
2022/09/21 00:41:02;;;;;;;5.28;4.43;;;12.60;99.90;;;;;;4947576;29;20031;-88
2022/09/21 00:43:28;;;;;;;5.68;5.10;;;12.60;99.90;;;;;;4928698;29;20036;-87
2022/09/21 00:46:01;;;;;;;7.40;5.50;;;12.50;99.90;;;;;;4920768;29;20035;-87
2022/09/21 00:48:28;;;;;;;10.50;5.28;;;12.50;99.90;;;;;;4929115;29;20038;-87
2022/09/21 00:50:58;;;;;;;5.40;4.65;;;12.50;99.90;;;;;;4943718;29;20067;-87
2022/09/21 00:53:24;;;;;;;4.85;4.05;;;12.50;99.90;;;;;;4931759;29;20062;-87
2022/09/21 00:55:54;;;;;;;5.03;4.60;;;12.50;99.90;;;;;;4932166;29;20031;-87
2022/09/21 00:58:29;;;;;;;5.28;4.32;;;12.50;99.90;;;;;;4931151;29;20387;-87
2022/09/21 01:00:57;;;;;;;4.47;3.63;;;12.40;99.90;;;;;;4928661;29;20035;-87
2022/09/21 01:03:23;;;;;;;7.60;5.60;;;12.40;99.90;;;;;;4920115;29;20461;-87
2022/09/21 01:05:50;;;;;;;5.03;4.40;;;12.40;99.90;;;;;;4947312;29;20043;-87
2022/09/21 01:08:18;;;;;;;5.32;4.40;;;12.40;99.90;;;;;;4931739;29;20036;-87
2022/09/21 01:10:47;;;;;;;4.05;3.65;;;12.40;99.90;;;;;;4945548;29;20063;-87
2022/09/21 01:13:34;;;;;;;7.90;4.40;;;12.40;99.90;;;;;;4947425;29;20038;-87
2022/09/21 01:16:10;;;;;;;7.53;4.78;;;12.40;99.90;;;;;;4941285;29;20031;-87
2022/09/21 01:18:50;;;;;;;5.30;4.35;;;12.30;99.90;;;;;;4931515;29;20027;-87
2022/09/21 01:21:23;;;;;;;4.47;3.85;;;12.40;99.90;;;;;;4935480;29;20099;-87
2022/09/21 01:24:15;;;;;;;5.68;4.47;;;12.30;99.90;;;;;;4947201;29;21018;-88
2022/09/21 01:27:02;;;;;;;5.68;4.18;;;12.30;99.90;;;;;;4928535;29;20036;-87
2022/09/21 01:29:39;;;;;;;4.32;4.03;;;12.30;99.90;;;;;;4913301;29;20040;-87
2022/09/21 01:32:14;;;;;;;3.90;3.67;;;12.30;99.90;;;;;;4912478;29;20036;-87
2022/09/21 01:34:54;;;;;;;4.65;3.42;;;12.30;99.90;;;;;;4929428;29;20031;-87
2022/09/21 01:37:48;;;;;;;5.05;4.50;;;12.20;99.90;;;;;;4946867;29;20048;-87
2022/09/21 01:40:42;;;;;;;4.32;3.92;;;12.20;99.90;;;;;;4931328;29;20032;-87
2022/09/21 01:43:13;;;;;;;5.03;2.92;;;12.20;99.90;;;;;;4939311;29;20039;-87
2022/09/21 01:45:45;;;;;;;7.78;4.93;;;12.20;99.90;;;;;;4933618;29;20091;-87
2022/09/21 01:48:13;;;;;;;3.67;3.45;;;12.20;99.90;;;;;;4947408;29;20099;-87
2022/09/21 01:50:48;;;;;;;4.85;4.20;;;12.20;99.90;;;;;;4915353;29;20035;-87
2022/09/21 01:53:22;;;;;;;4.30;3.72;;;12.20;99.90;;;;;;4932162;29;20032;-87
2022/09/21 01:55:52;;;;;;;4.53;4.13;;;12.20;99.90;;;;;;4944824;29;20023;-87
2022/09/21 01:58:41;;;;;;;3.90;3.55;;;12.10;99.90;;;;;;4947367;29;20091;-87
2022/09/21 02:01:10;;;;;;;3.45;3.22;;;12.10;99.90;;;;;;4931114;29;20032;-87
2022/09/21 02:03:44;;;;;;;4.80;4.35;;;12.10;99.90;;;;;;4931364;29;20063;-87
2022/09/21 02:06:12;;;;;;;4.10;3.78;;;12.10;99.90;;;;;;4931532;29;20032;-87
2022/09/21 02:08:38;;;;;;;3.63;3.38;;;12.10;99.90;;;;;;4916107;29;20039;-87
2022/09/21 02:11:05;;;;;;;2.70;2.45;;;12.10;99.90;;;;;;4920474;29;20044;-87
2022/09/21 02:13:36;;;;;;;4.53;3.60;;;12.00;99.90;;;;;;4915827;29;20482;-87
2022/09/21 02:16:07;;;;;;;4.13;3.60;;;12.00;99.90;;;;;;4945281;29;20108;-87
2022/09/21 02:19:08;;;;;;;4.82;3.30;;;12.00;99.90;;;;;;4950256;29;20078;-88
2022/09/21 02:22:08;;;;;;;4.30;3.85;;;12.00;99.90;;;;;;4932101;29;20040;-87
2022/09/21 02:24:39;;;;;;;3.67;2.85;;;12.00;99.90;;;;;;4932010;29;20059;-87
2022/09/21 02:27:28;;;;;;;3.65;3.38;;;12.00;99.90;;;;;;4931193;29;20088;-86
2022/09/21 02:30:13;;;;;;;4.80;3.93;;;12.00;99.90;;;;;;4946436;29;20036;-87
2022/09/21 02:32:50;;;;;;;6.00;4.82;;;12.00;99.90;;;;;;4950101;29;20323;-87
2022/09/21 02:35:19;;;;;;;5.07;4.00;;;11.90;99.90;;;;;;4949889;29;20036;-87
2022/09/21 02:38:30;;;;;;;4.85;4.43;;;11.90;99.90;;;;;;4934181;29;20038;-87
2022/09/21 02:41:06;;;;;;;3.25;2.97;;;11.90;99.90;;;;;;4932036;29;20042;-87
2022/09/21 02:43:56;;;;;;;4.85;4.13;;;11.90;99.90;;;;;;4929615;29;20038;-87
2022/09/21 02:46:36;;;;;;;6.65;4.35;;;11.90;99.90;;;;;;4930746;29;20032;-87
2022/09/21 02:49:18;;;;;;;4.28;3.90;;;11.90;99.90;;;;;;4933961;29;20047;-87
2022/09/21 02:51:50;;;;;;;3.70;3.42;;;11.90;99.90;;;;;;4931779;29;20036;-86
2022/09/21 02:54:19;;;;;;;4.15;3.70;;;11.90;99.90;;;;;;4932380;29;20052;-86
2022/09/21 02:56:47;;;;;;;6.87;4.80;;;11.80;99.90;;;;;;4948484;29;20028;-87
2022/09/21 02:59:15;;;;;;;3.50;3.20;;;11.80;99.90;;;;;;4933830;29;20294;-87
2022/09/21 03:01:42;;;;;;;6.13;4.10;;;11.80;99.90;;;;;;4949017;29;20046;-87
2022/09/21 03:04:09;;;;;;;4.22;3.78;;;11.80;99.90;;;;;;4913000;29;20032;-87
2022/09/21 03:06:36;;;;;;;5.90;3.83;;;11.80;99.90;;;;;;4922680;29;20032;-87
2022/09/21 03:09:02;;;;;;;4.38;3.25;;;11.80;99.90;;;;;;4933306;29;20032;-87
2022/09/21 03:11:28;;;;;;;3.58;3.20;;;11.80;99.90;;;;;;4930239;29;20024;-87
2022/09/21 03:13:54;;;;;;;3.63;3.20;;;11.70;99.90;;;;;;4930742;29;20451;-87
2022/09/21 03:16:21;;;;;;;3.58;2.97;;;11.70;99.90;;;;;;4930193;29;20059;-87
2022/09/21 03:18:47;;;;;;;5.35;3.10;;;11.70;99.90;;;;;;4945415;29;20062;-87
2022/09/21 03:21:13;;;;;;;7.70;5.03;;;11.70;99.90;;;;;;4915916;29;20051;-87
2022/09/21 03:23:39;;;;;;;11.50;3.92;;;11.70;99.90;;;;;;4918344;29;20027;-87
2022/09/21 03:26:07;;;;;;;3.25;3.03;;;11.70;99.90;;;;;;4899140;29;20037;-87
2022/09/21 03:28:33;;;;;;;6.43;3.63;;;11.60;99.90;;;;;;4919067;29;20055;-87
2022/09/21 03:30:59;;;;;;;2.80;2.60;;;11.60;99.90;;;;;;4933195;29;20032;-87
2022/09/21 03:33:25;;;;;;;4.18;3.83;;;11.60;99.90;;;;;;4933601;29;20064;-87
2022/09/21 03:35:51;;;;;;;4.07;2.80;;;11.60;99.90;;;;;;4917201;29;20054;-87
2022/09/21 03:38:18;;;;;;;6.15;3.00;;;11.60;99.90;;;;;;4915242;29;20028;-87
2022/09/21 03:40:47;;;;;;;3.60;3.30;;;11.60;99.90;;;;;;4929780;29;20027;-87
2022/09/21 03:43:14;;;;;;;3.72;3.05;;;11.60;99.90;;;;;;4929926;29;20059;-87
2022/09/21 03:45:41;;;;;;;2.90;2.70;;;11.50;99.90;;;;;;4935326;29;20469;-86
2022/09/21 03:48:08;;;;;;;3.45;3.15;;;11.50;99.90;;;;;;4929674;29;20032;-87
2022/09/21 03:50:34;;;;;;;3.63;3.08;;;11.50;99.90;;;;;;4948557;29;20024;-87
2022/09/21 03:53:00;;;;;;;5.03;3.78;;;11.50;99.90;;;;;;4913459;29;20028;-87
2022/09/21 03:55:26;;;;;;;3.00;2.13;;;11.50;99.90;;;;;;4931559;29;20043;-87
2022/09/21 03:57:52;;;;;;;4.45;3.85;;;11.50;99.90;;;;;;4931298;29;20028;-86
2022/09/21 04:00:18;;;;;;;6.28;2.70;;;11.50;99.90;;;;;;4922424;29;20043;-87
2022/09/21 04:02:44;;;;;;;3.03;2.67;;;11.40;99.90;;;;;;4927214;29;20060;-86
2022/09/21 04:05:13;;;;;;;3.50;3.15;;;11.40;99.90;;;;;;4948370;29;20035;-87
2022/09/21 04:07:40;;;;;;;3.20;2.92;;;11.40;99.90;;;;;;4932396;29;20121;-87
2022/09/21 04:10:11;;;;;;;3.05;2.47;;;11.40;99.90;;;;;;4922372;29;20024;-86
2022/09/21 04:12:42;;;;;;;3.45;2.92;;;11.40;99.90;;;;;;4929334;29;20047;-87
2022/09/21 04:15:10;;;;;;;2.85;2.65;;;11.40;99.90;;;;;;4929901;29;20119;-86
2022/09/21 04:17:36;;;;;;;2.47;2.28;;;11.40;99.90;;;;;;4929326;29;20028;-87
2022/09/21 04:20:02;;;;;;;2.42;2.22;;;11.40;99.90;;;;;;4930283;29;20055;-86
2022/09/21 04:22:28;;;;;;;5.88;4.20;;;11.40;99.90;;;;;;4932127;29;20023;-87
2022/09/21 04:24:55;;;;;;;4.03;2.95;;;11.40;99.90;;;;;;4933018;29;20111;-86
2022/09/21 04:27:20;;;;;;;2.65;2.45;;;11.40;99.90;;;;;;4913252;29;20040;-87
2022/09/21 04:29:46;;;;;;;3.38;2.65;;;11.40;99.90;;;;;;4936313;29;20055;-86
2022/09/21 04:32:12;;;;;;;3.22;2.95;;;11.40;99.90;;;;;;4949050;29;20043;-86
2022/09/21 04:34:38;;;;;;;4.30;1.92;;;11.40;99.90;;;;;;4914569;29;20028;-87
2022/09/21 04:37:08;;;;;;;9.18;3.10;;;11.30;99.90;;;;;;4917974;29;20064;-88
2022/09/21 04:39:34;;;;;;;6.38;2.85;;;11.40;99.90;;;;;;4913684;29;20043;-88
2022/09/21 04:42:00;;;;;;;2.78;2.58;;;11.40;99.90;;;;;;4900263;29;20023;-88
2022/09/21 04:44:27;;;;;;;3.33;3.03;;;11.40;99.90;;;;;;4947494;29;20035;-88
2022/09/21 04:46:53;;;;;;;3.25;3.03;;;11.30;99.90;;;;;;4931734;29;20394;-88
2022/09/21 04:49:19;;;;;;;3.67;3.10;;;11.30;99.90;;;;;;4947646;29;20027;-88
2022/09/21 04:51:44;;;;;;;7.25;4.30;;;11.30;99.90;;;;;;4947292;29;20036;-88
2022/09/21 04:54:10;;;;;;;3.17;2.92;;;11.30;99.90;;;;;;4931532;29;20122;-88
2022/09/21 04:56:36;;;;;;;3.80;3.22;;;11.30;99.90;;;;;;4928425;29;20052;-87
2022/09/21 04:59:02;;;;;;;4.07;2.95;;;11.30;99.90;;;;;;4945243;29;20118;-88
2022/09/21 05:01:28;;;;;;;4.60;3.65;;;11.30;99.90;;;;;;4942208;29;20034;-88
2022/09/21 05:03:54;;;;;;;5.43;4.20;;;11.30;99.90;;;;;;4928338;29;20032;-88
2022/09/21 05:06:20;;;;;;;5.32;4.15;;;11.30;99.90;;;;;;4931136;29;20047;-87
2022/09/21 05:11:30;;;;;;;3.05;2.85;;;11.20;99.90;;;;;;4947501;29;20035;-88
2022/09/21 05:13:56;;;;;;;4.75;2.75;;;11.10;99.90;;;;;;4929421;29;20023;-88
2022/09/21 05:16:22;;;;;;;3.70;3.40;;;11.10;99.90;;;;;;4928154;29;20028;-88
2022/09/21 05:18:53;;;;;;;4.82;4.35;;;11.10;99.90;;;;;;4930644;29;20434;-88
2022/09/21 05:21:20;;;;;;;6.32;3.75;;;11.00;99.90;;;;;;4939967;29;20043;-87
2022/09/21 05:23:46;;;;;;;4.97;3.70;;;11.00;99.90;;;;;;4931102;29;20027;-87
2022/09/21 05:26:12;;;;;;;8.02;4.55;;;11.00;99.90;;;;;;4947385;29;20032;-87
2022/09/21 05:28:38;;;;;;;3.85;3.45;;;11.00;99.90;;;;;;4928825;29;20338;-87
2022/09/21 05:31:16;;;;;;;7.07;6.38;;;10.90;99.90;;;;;;4959035;29;20044;-88
2022/09/21 05:33:51;;;;;;;9.95;7.55;;;10.90;99.90;;;;;;4928695;29;20035;-88
2022/09/21 05:36:40;;;;;;;16.10;8.57;;;10.90;99.90;;;;;;4931035;29;20040;-87
2022/09/21 05:39:06;;;;;;;14.63;10.00;;;10.90;99.90;;;;;;4935298;29;20059;-88
2022/09/21 05:41:33;;;;;;;17.90;11.23;;;10.90;99.90;;;;;;4950887;29;20109;-88
2022/09/21 05:43:59;;;;;;;18.83;9.77;;;10.90;99.90;;;;;;4933711;29;20040;-88
2022/09/21 05:46:47;;;;;;;15.30;9.70;;;10.90;99.90;;;;;;4936817;29;20116;-88
2022/09/21 05:49:17;;;;;;;9.73;8.13;;;10.80;99.90;;;;;;4944422;29;20039;-88
2022/09/21 05:52:00;;;;;;;14.13;8.35;;;10.90;99.90;;;;;;4933469;29;20080;-89
2022/09/21 05:54:45;;;;;;;12.45;7.65;;;10.90;99.90;;;;;;4927058;29;20028;-89
2022/09/21 05:57:23;;;;;;;10.23;7.25;;;10.90;99.90;;;;;;4934554;29;20032;-89
2022/09/21 05:59:54;;;;;;;9.38;5.75;;;10.80;99.90;;;;;;4934759;29;20122;-89
2022/09/21 06:02:55;;;;;;;9.15;6.03;;;10.90;99.90;;;;;;4933610;29;20036;-89
2022/09/21 06:05:22;;;;;;;9.05;6.47;;;10.90;99.90;;;;;;4948459;29;20039;-89
2022/09/21 06:07:48;;;;;;;11.68;7.00;;;10.90;99.90;;;;;;4917763;29;20059;-88
2022/09/21 06:10:15;;;;;;;11.98;7.18;;;10.90;99.90;;;;;;4921007;29;20040;-88
2022/09/21 06:12:41;;;;;;;7.85;6.05;;;10.90;99.90;;;;;;4929814;29;20099;-87
2022/09/21 06:15:11;;;;;;;8.10;5.15;;;10.90;99.90;;;;;;4930992;29;20047;-89
2022/09/21 06:17:37;;;;;;;4.90;4.05;;;10.90;99.90;;;;;;4921205;29;20035;-88
2022/09/21 06:20:05;;;;;;;5.88;4.60;;;10.90;99.90;;;;;;4949469;29;20053;-89
2022/09/21 06:22:31;;;;;;;4.60;4.13;;;11.00;99.90;;;;;;4933545;29;20036;-89
2022/09/21 06:24:58;;;;;;;4.80;4.40;;;11.00;99.90;;;;;;4934148;29;20047;-88
2022/09/21 06:27:24;;;;;;;4.55;3.33;;;11.00;99.90;;;;;;4918684;29;20038;-89
2022/09/21 06:29:49;;;;;;;3.95;3.65;;;11.00;99.90;;;;;;4918581;29;20035;-87
2022/09/21 06:32:15;;;;;;;4.18;3.25;;;11.00;99.90;;;;;;4932008;29;20063;-87
2022/09/21 06:34:41;;;;;;;6.93;4.90;;;11.00;99.90;;;;;;4941798;29;20038;-87
2022/09/21 06:37:08;;;;;;;5.38;4.88;;;11.10;99.90;;;;;;4931255;29;20076;-87
2022/09/21 06:39:34;;;;;;;4.60;4.20;;;11.10;99.90;;;;;;4909433;29;20040;-87
2022/09/21 06:41:59;;;;;;;5.05;4.35;;;11.10;99.90;;;;;;4930896;29;20071;-87
2022/09/21 06:44:26;;;;;;;4.25;3.75;;;11.10;99.90;;;;;;4931741;29;20040;-87
2022/09/21 06:46:52;;;;;;;4.63;4.18;;;11.20;99.90;;;;;;4929113;29;20035;-88
2022/09/21 06:49:18;;;;;;;5.80;4.25;;;11.20;99.90;;;;;;4917329;29;20050;-88
2022/09/21 06:51:44;;;;;;;10.05;4.50;;;;;;;;;;4938356;29;20036;-88
2022/09/21 06:54:10;;;;;;;7.50;5.13;;;11.20;99.90;;;;;;4922499;29;20035;-89
2022/09/21 06:56:36;;;;;;;7.03;5.70;;;11.30;99.90;;;;;;4949232;29;20047;-89
2022/09/21 06:59:02;;;;;;;11.02;6.78;;;;;;;;;;4921900;29;20028;-89
2022/09/21 07:01:28;;;;;;;7.80;6.88;;;11.30;99.90;;;;;;4930604;29;20556;-89
2022/09/21 07:03:54;;;;;;;6.55;6.07;;;11.40;99.90;;;;;;4915442;29;20036;-88
2022/09/21 07:06:20;;;;;;;7.13;5.57;;;11.40;99.90;;;;;;4914882;29;20068;-88
2022/09/21 07:08:47;;;;;;;7.55;5.78;;;11.40;99.90;;;;;;4930727;29;20128;-89
2022/09/21 07:11:13;;;;;;;11.75;5.57;;;11.40;99.90;;;;;;4930285;29;20044;-89
2022/09/21 07:13:40;;;;;;;7.45;5.38;;;11.50;99.90;;;;;;4931698;29;20024;-88
2022/09/21 07:16:08;;;;;;;7.05;5.97;;;11.50;99.90;;;;;;4914450;29;20028;-88
2022/09/21 07:18:35;;;;;;;12.00;5.93;;;11.60;99.90;;;;;;4930364;29;20032;-89
2022/09/21 07:21:05;;;;;;;8.98;6.68;;;11.60;99.90;;;;;;4930343;29;20032;-86
2022/09/21 07:23:32;;;;;;;8.90;6.63;;;11.60;99.90;;;;;;4930645;29;20071;-86
2022/09/21 07:26:02;;;;;;;10.65;6.45;;;11.60;99.90;;;;;;4930424;29;20035;-86
2022/09/21 07:28:28;;;;;;;6.90;6.30;;;11.60;99.90;;;;;;4930505;29;20036;-86
2022/09/21 07:30:53;;;;;;;7.85;7.07;;;11.70;99.90;;;;;;4935906;29;20051;-86
2022/09/21 07:33:19;;;;;;;6.97;6.05;;;11.70;99.90;;;;;;4914557;29;20025;-87
2022/09/21 07:35:52;;;;;;;7.95;6.28;;;11.70;99.90;;;;;;4922534;29;20082;-86
2022/09/21 07:38:18;;;;;;;6.22;5.13;;;11.70;99.90;;;;;;4961128;29;20040;-86
2022/09/21 07:40:44;;;;;;;9.48;5.13;;;11.80;99.90;;;;;;4940925;29;20028;-86
2022/09/21 07:43:10;;;;;;;9.85;7.82;;;11.80;99.90;;;;;;4933839;29;20061;-87
2022/09/21 07:45:36;;;;;;;28.08;8.15;;;11.80;99.90;;;;;;4933961;29;20042;-88
2022/09/21 07:48:07;;;;;;;8.52;7.47;;;11.80;99.90;;;;;;4933639;29;20047;-87
2022/09/21 07:50:34;;;;;;;7.30;6.55;;;11.90;99.90;;;;;;4933215;29;20051;-88
2022/09/21 07:53:02;;;;;;;12.30;6.00;;;11.80;99.90;;;;;;4949839;29;20024;-87
2022/09/21 07:55:29;;;;;;;10.00;7.15;;;11.90;99.90;;;;;;4908865;29;20095;-87
2022/09/21 08:00:39;;;;;;;18.60;7.30;;;11.90;99.90;;;;;;4916948;29;20040;-87
2022/09/21 08:03:05;;;;;;;9.38;6.10;;;11.90;99.90;;;;;;4929715;29;20562;-86
2022/09/21 08:05:32;;;;;;;6.38;5.07;;;12.00;99.90;;;;;;4930188;29;20024;-86
2022/09/21 08:07:58;;;;;;;12.20;6.65;;;12.00;99.90;;;;;;4930235;29;20092;-87
2022/09/21 08:10:26;;;;;;;8.45;6.45;;;12.00;99.90;;;;;;4914709;29;20036;-86
2022/09/21 08:12:53;;;;;;;6.35;5.60;;;12.10;99.90;;;;;;4942800;29;20028;-87
2022/09/21 08:15:19;;;;;;;8.35;6.13;;;12.20;99.90;;;;;;4932571;29;20096;-86
2022/09/21 08:17:44;;;;;;;10.93;5.13;;;12.20;99.90;;;;;;4927370;29;20036;-87
2022/09/21 08:20:10;;;;;;;10.65;5.43;;;12.20;99.90;;;;;;4914047;29;20024;-87
2022/09/21 08:22:36;;;;;;;5.68;5.05;;;12.20;99.90;;;;;;4914252;29;20386;-87
2022/09/21 08:25:04;;;;;;;4.25;3.85;;;12.30;99.90;;;;;;4914462;29;20043;-87
2022/09/21 08:27:29;;;;;;;9.45;5.43;;;12.40;99.90;;;;;;4929990;29;20042;-87
2022/09/21 08:29:55;;;;;;;7.28;4.90;;;12.40;99.90;;;;;;4914135;29;20028;-88
2022/09/21 08:32:22;;;;;;;5.32;4.50;;;12.40;99.90;;;;;;4913971;29;20071;-87
2022/09/21 08:34:48;;;;;;;8.38;4.55;;;12.40;99.90;;;;;;4936649;29;20470;-86
2022/09/21 08:37:14;;;;;;;5.65;4.85;;;12.50;99.90;;;;;;4948818;29;20047;-87
2022/09/21 08:39:40;;;;;;;9.43;5.32;;;12.50;99.90;;;;;;4917186;29;20027;-87
2022/09/21 08:42:37;;;;;;;5.95;5.00;;;12.60;99.90;;;;;;4949133;29;20067;-88
2022/09/21 08:45:09;;;;;;;4.07;3.35;;;12.70;99.90;;;;;;4949275;29;20036;-87
2022/09/21 08:47:35;;;;;;;4.50;3.75;;;;;;;;;;4949119;29;20055;-87
2022/09/21 08:50:04;;;;;;;8.25;4.22;;;12.80;99.90;;;;;;4948710;29;20032;-87
2022/09/21 08:52:31;;;;;;;6.13;4.00;;;13.00;99.90;;;;;;4949162;29;20035;-87
2022/09/21 08:55:05;;;;;;;3.90;3.10;;;13.00;99.90;;;;;;4934166;29;20023;-88
2022/09/21 08:57:33;;;;;;;3.75;3.40;;;13.10;99.90;;;;;;4950098;29;20450;-88
2022/09/21 09:00:01;;;;;;;4.38;3.05;;;13.10;99.90;;;;;;4934913;29;20030;-88
2022/09/21 09:02:27;;;;;;;6.47;3.97;;;;;;;;;;4950559;29;20039;-88
2022/09/21 09:04:54;;;;;;;7.07;4.57;;;;;;;;;;4949763;29;20046;-89
2022/09/21 09:07:47;;;;;;;6.15;3.10;;;13.30;99.90;;;;;;4949127;29;20132;-88
2022/09/21 09:10:44;;;;;;;6.15;3.58;;;13.30;99.90;;;;;;4949902;29;20050;-89
2022/09/21 09:13:45;;;;;;;7.32;3.55;;;13.40;99.90;;;;;;4949037;29;20043;-88
2022/09/21 09:16:29;;;;;;;3.05;2.75;;;13.40;99.90;;;;;;4900912;29;20055;-89
2022/09/21 09:19:08;;;;;;;2.35;2.15;;;13.50;99.90;;;;;;4948130;29;20043;-88
2022/09/21 09:21:36;;;;;;;4.47;2.72;;;13.60;99.90;;;;;;4949372;29;20034;-89
2022/09/21 09:24:15;;;;;;;9.40;3.03;;;13.60;99.90;;;;;;4932853;29;20042;-89
2022/09/21 09:26:51;;;;;;;4.80;3.13;;;13.70;99.90;;;;;;4948393;29;20099;-89
2022/09/21 09:29:27;;;;;;;4.03;3.00;;;13.70;99.90;;;;;;4932251;29;20028;-89
2022/09/21 09:31:57;;;;;;;3.60;2.25;;;13.80;99.90;;;;;;4947982;29;20456;-89
2022/09/21 09:34:23;;;;;;;5.53;2.33;;;;;;;;;;4947742;29;20024;-88
2022/09/21 09:37:00;;;;;;;2.80;1.98;;;13.90;99.90;;;;;;4931565;29;20083;-89
2022/09/21 09:39:28;;;;;;;8.43;2.30;;;14.00;99.90;;;;;;4931568;29;20091;-89
2022/09/21 09:42:06;;;;;;;3.03;2.40;;;14.00;99.90;;;;;;4931878;29;20034;-90
2022/09/21 09:45:18;;;;;;;1.83;1.33;;;13.80;99.90;;;;;;4948077;29;20046;-89
2022/09/21 09:47:53;;;;;;;3.72;2.35;;;13.70;99.90;;;;;;4947782;29;20035;-87
2022/09/21 09:50:28;;;;;;;2.10;1.95;;;13.60;99.90;;;;;;4931868;29;20063;-88
2022/09/21 09:53:23;;;;;;;4.20;1.75;;;13.70;99.90;;;;;;4947869;29;20039;-88
2022/09/21 09:55:51;;;;;;;9.15;4.05;;;13.70;99.90;;;;;;4931905;29;20051;-89
2022/09/21 09:58:29;;;;;;;5.45;1.77;;;13.70;99.90;;;;;;4948768;29;20023;-88
2022/09/21 10:00:55;;;;;;;7.78;1.95;;;13.60;99.90;;;;;;4948085;29;20039;-89
2022/09/21 10:03:24;;;;;;;2.00;1.77;;;13.60;99.90;;;;;;4931749;29;20544;-88
2022/09/21 10:05:51;;;;;;;4.20;2.53;;;13.60;99.90;;;;;;4929783;29;20101;-88
2022/09/21 10:08:35;;;;;;;1.90;1.35;;;13.60;99.90;;;;;;4931306;29;20063;-88
2022/09/21 10:11:02;;;;;;;1.88;1.33;;;13.60;99.90;;;;;;4963539;29;20036;-88
2022/09/21 10:13:40;;;;;;;2.72;2.05;;;13.60;99.90;;;;;;4931645;29;20031;-88
2022/09/21 10:16:08;;;;;;;4.72;1.73;;;13.60;99.90;;;;;;4947633;29;20370;-89
2022/09/21 10:18:34;;;;;;;5.40;2.00;;;13.80;99.90;;;;;;4947574;29;20130;-89
2022/09/21 10:21:01;;;;;;;5.22;2.25;;;13.80;99.90;;;;;;4947233;29;20043;-88
2022/09/21 10:23:29;;;;;;;3.83;1.70;;;13.80;99.90;;;;;;4947627;29;20024;-88
2022/09/21 10:26:10;;;;;;;2.00;1.67;;;13.80;99.90;;;;;;4933396;29;20036;-89
2022/09/21 10:28:37;;;;;;;2.08;1.48;;;13.70;99.90;;;;;;4951094;29;20031;-89
2022/09/21 10:31:18;;;;;;;5.82;1.85;;;13.70;99.90;;;;;;4919405;29;20047;-89
2022/09/21 10:33:53;;;;;;;2.90;2.22;;;13.70;99.90;;;;;;4935048;29;20035;-89
2022/09/21 10:36:26;;;;;;;5.72;1.40;;;13.70;99.90;;;;;;4935985;29;20052;-89
2022/09/21 10:38:52;;;;;;;7.03;1.58;;;13.70;99.90;;;;;;4933611;29;20043;-89
2022/09/21 10:41:18;;;;;;;2.78;2.25;;;13.70;99.90;;;;;;4916263;29;20044;-89
2022/09/21 10:43:44;;;;;;;1.75;1.65;;;13.70;99.90;;;;;;4916090;29;20028;-88
2022/09/21 10:46:11;;;;;;;6.28;1.80;;;13.70;99.90;;;;;;4932030;29;20052;-88
2022/09/21 10:48:37;;;;;;;1.50;1.17;;;13.60;99.90;;;;;;4947448;29;20036;-88
2022/09/21 10:51:03;;;;;;;1.88;1.35;;;13.60;99.90;;;;;;4965503;29;20040;-89
2022/09/21 10:53:36;;;;;;;2.28;1.42;;;13.60;99.90;;;;;;4934473;29;20040;-90
2022/09/21 10:56:06;;;;;;;4.25;1.92;;;13.60;99.90;;;;;;4936758;29;20028;-89
2022/09/21 10:58:34;;;;;;;3.08;2.25;;;13.60;99.90;;;;;;4934815;29;20492;-88
2022/09/21 11:01:21;;;;;;;3.20;1.77;;;13.60;99.90;;;;;;4950944;29;20500;-89
2022/09/21 11:04:07;;;;;;;1.50;1.35;;;13.60;99.90;;;;;;4927398;29;20032;-88
2022/09/21 11:06:40;;;;;;;1.98;0.98;;;13.60;99.90;;;;;;4932982;29;20051;-90
2022/09/21 11:09:12;;;;;;;8.82;2.20;;;13.60;99.90;;;;;;4929332;29;20119;-89
2022/09/21 11:11:57;;;;;;;5.43;2.25;;;13.60;99.90;;;;;;4922264;29;20062;-89
2022/09/21 11:14:44;;;;;;;2.45;2.22;;;13.60;99.90;;;;;;4931367;29;20034;-90
2022/09/21 11:17:26;;;;;;;6.85;2.25;;;13.60;99.90;;;;;;4931463;29;20047;-90
2022/09/21 11:20:13;;;;;;;5.60;1.92;;;13.60;99.90;;;;;;4915780;29;20031;-89
2022/09/21 11:22:54;;;;;;;2.35;1.98;;;13.60;99.90;;;;;;4933039;29;20039;-89
2022/09/21 11:25:42;;;;;;;1.90;1.30;;;13.70;99.90;;;;;;4934463;29;20032;-89
2022/09/21 11:28:12;;;;;;;6.85;1.67;;;13.70;99.90;;;;;;4950751;29;20031;-89
2022/09/21 11:31:05;;;;;;;5.65;1.77;;;13.70;99.90;;;;;;4950577;29;20066;-90
2022/09/21 11:34:07;;;;;;;4.93;1.92;;;13.70;99.90;;;;;;4951158;29;20124;-89
2022/09/21 11:36:58;;;;;;;3.53;1.95;;;13.80;99.90;;;;;;4950225;29;20150;-89
2022/09/21 11:39:53;;;;;;;4.10;1.67;;;13.80;99.90;;;;;;4950270;29;20039;-90
2022/09/21 11:42:34;;;;;;;1.92;1.83;;;13.80;99.90;;;;;;4928510;29;20048;-90
2022/09/21 11:45:02;;;;;;;5.05;2.15;;;13.80;99.90;;;;;;4949935;29;20036;-89
2022/09/21 11:48:05;;;;;;;2.75;2.05;;;13.80;99.90;;;;;;4952088;29;20083;-89
2022/09/21 11:50:57;;;;;;;3.35;1.98;;;13.90;99.90;;;;;;4934287;29;20040;-89
2022/09/21 11:53:45;;;;;;;2.10;1.02;;;13.90;99.90;;;;;;4934020;29;20044;-89
2022/09/21 11:56:17;;;;;;;1.60;1.50;;;13.90;99.90;;;;;;4929208;29;20127;-89
2022/09/21 11:58:59;;;;;;;2.05;1.80;;;13.90;99.90;;;;;;4930668;29;20060;-89
2022/09/21 12:01:38;;;;;;;5.97;1.80;;;13.90;99.90;;;;;;4937922;29;20481;-90
2022/09/21 12:04:48;;;;;;;4.88;1.75;;;13.90;99.90;;;;;;4933363;29;20042;-89
2022/09/21 12:07:26;;;;;;;3.08;1.05;;;14.00;99.90;;;;;;4914720;29;20032;-90
2022/09/21 12:09:55;;;;;;;1.92;1.00;;;14.00;99.90;;;;;;4943408;29;20046;-89
2022/09/21 12:12:26;;;;;;;3.95;1.98;;;14.00;99.90;;;;;;4933672;29;20039;-90
2022/09/21 12:15:04;;;;;;;4.40;1.58;;;14.10;99.90;;;;;;4933451;29;20047;-90
2022/09/21 12:17:54;;;;;;;4.38;1.83;;;14.10;99.90;;;;;;4949344;29;20031;-89
2022/09/21 12:20:42;;;;;;;3.88;1.80;;;14.20;99.90;;;;;;4949069;29;20024;-89
2022/09/21 12:23:18;;;;;;;3.85;1.15;;;14.10;99.90;;;;;;4930467;29;20103;-90
2022/09/21 12:25:53;;;;;;;2.75;1.73;;;14.10;99.90;;;;;;4914663;29;20096;-89
2022/09/21 12:28:36;;;;;;;4.38;1.42;;;14.10;99.90;;;;;;4930903;29;20422;-89
2022/09/21 12:31:08;;;;;;;4.53;1.38;;;14.10;99.90;;;;;;4914427;29;20032;-89
2022/09/21 12:33:45;;;;;;;2.72;1.17;;;14.20;99.90;;;;;;4930224;29;20040;-90
2022/09/21 12:36:19;;;;;;;1.17;1.17;;;14.20;99.90;;;;;;4945355;29;20052;-89
2022/09/21 12:38:45;;;;;;;8.73;1.20;;;14.20;99.90;;;;;;4948861;29;20034;-89
2022/09/21 12:41:20;;;;;;;2.25;2.05;;;14.30;99.90;;;;;;4948762;29;20028;-89
2022/09/21 12:44:07;;;;;;;3.30;1.77;;;14.30;99.90;;;;;;4948641;29;20151;-89
2022/09/21 12:46:47;;;;;;;5.75;1.42;;;14.30;99.90;;;;;;4933168;29;20126;-89
2022/09/21 12:49:19;;;;;;;7.32;1.35;;;14.30;99.90;;;;;;4947856;29;20046;-89
2022/09/21 12:51:53;;;;;;;6.32;1.85;;;14.30;99.90;;;;;;4949784;29;20035;-89
2022/09/21 12:54:48;;;;;;;0.75;0.75;;;14.30;99.90;;;;;;4932717;29;20389;-89
2022/09/21 12:57:38;;;;;;;2.85;1.35;;;14.30;99.90;;;;;;4927555;29;20044;-89
2022/09/21 13:00:08;;;;;;;;;;;14.30;99.90;;;;;;4930037;29;20036;-89
2022/09/21 13:03:00;;;;;;;1.30;0.90;;;14.30;99.90;;;;;;4940560;29;19921;-90
2022/09/21 13:05:26;;;;;;;1.50;1.20;;;14.30;99.90;;;;;;4936676;29;20062;-89
2022/09/21 13:08:03;;;;;;;1.10;0.95;;;14.40;99.90;;;;;;4913379;29;20039;-88
2022/09/21 13:10:43;;;;;;;2.67;1.35;;;14.40;99.90;;;;;;4913091;29;20047;-89
2022/09/21 13:13:21;;;;;;;2.15;1.73;;;14.50;99.90;;;;;;4929394;29;20087;-90
2022/09/21 13:15:48;;;;;;;3.38;1.15;;;14.60;99.90;;;;;;4913583;29;20182;-89
2022/09/21 13:18:34;;;;;;;1.48;1.33;;;14.60;99.90;;;;;;4929299;29;20469;-90
2022/09/21 13:21:13;;;;;;;1.85;1.27;;;14.60;99.90;;;;;;4930528;29;20039;-89